Latest Coastal Weather Observations for Brisbane Airport

IDQ60701

Issued at 8:05 pm EST Wednesday 23 July 2014 (issued every 10 minutes, with the page automatically refreshed every 10 minutes)

About coastal observations | Map of coastal stations | Coastal observations for QLD | Marine services | Other Formats
Station Details ID: 040842 Name: BRISBANE AERO Lat: -27.39 Lon: 153.13 Height: 4.51 m
Data from the previous 72 hours. | See also: Recent months at Brisbane Airport
Date/Time
EST
Temp

°C
Wind Pressure Rain
since 9am
mm
Weather Cloud Vis
km
Sea
Height
m
Swell
Dir
 
Speed
knots
Gust
knots
hPa Trend Height
m
Period
s
Dir
23/08:00pm 16.5 ESE 4 6 1021.6 - 0.0 - - 10 - - - -
23/07:30pm 15.9 ESE 5 7 1021.6 - 0.0 - - 10 - - - -
23/07:00pm 16.1 ESE 5 7 1021.4 - 0.0 - - 10 - - - -
23/06:30pm 16.3 ESE 5 7 1021.2 - 0.0 - - 10 - - - -
23/06:00pm 16.4 ESE 5 8 1021.2 F 0.0 Fine Partly cloudy 30 - - - -
23/05:30pm 16.9 ESE 6 9 1020.8 - 0.0 - Mostly clear 10 - - - -
23/05:00pm 17.2 ESE 6 10 1020.6 - 0.0 - Mostly clear 10 - - - -
23/04:30pm 18.0 E 6 9 1020.4 - 0.0 - Mostly clear 10 - - - -
23/04:00pm 18.5 E 7 13 1020.6 - 0.0 - Mostly clear 10 - - - -
23/03:30pm 19.1 E 9 14 1020.6 - 0.0 - Mostly clear 10 - - - -
23/03:00pm 19.3 ESE 8 14 1020.5 R 0.0 Fine Partly cloudy 35 - - - -
23/02:30pm 19.5 E 8 13 1020.5 - 0.0 - Partly cloudy 10 - - - -
23/02:00pm 19.3 E 7 10 1020.3 - 0.0 - Mostly clear 10 - - - -
23/01:30pm 19.2 E 7 11 1020.4 - 0.0 - Partly cloudy 10 - - - -
23/01:00pm 19.4 ESE 6 9 1020.5 - 0.0 - Mostly clear 10 - - - -
23/12:30pm 18.8 E 7 10 1020.9 - 0.0 - Mostly clear 10 - - - -
23/12:00pm 19.0 SE 4 8 1021.7 F 0.0 Fine Partly cloudy 40 - - - -
23/11:30am 18.9 S 7 11 1022.2 - 0.0 - Mostly clear 10 - - - -
23/11:00am 18.4 S 7 13 1022.6 - 0.0 - Mostly clear 10 - - - -
23/10:30am 17.3 SSW 9 12 1023.2 - 0.0 - Mostly clear 10 - - - -
23/10:00am 16.3 SSW 9 14 1023.6 - 0.0 - Mostly clear 10 - - - -
23/09:30am 15.6 SSW 11 15 1023.7 - 0.0 - Mostly clear 10 - - - -
23/09:00am 14.3 SSW 11 15 1023.5 R 6.0 Fine Mostly clear 35 - - - -
23/08:30am 13.4 SSW 11 14 1023.3 - 6.0 - Mostly clear 10 - - - -
23/08:00am 12.3 SSW 8 10 1022.9 - 6.0 - Mostly clear 10 - - - -
23/07:30am 10.6 SSW 6 9 1022.5 - 6.0 - Mostly clear 10 - - - -
23/07:00am 9.2 SSW 7 8 1022.2 - 6.0 - Mostly clear 10 - - - -
23/06:30am 8.6 SSW 8 10 1021.8 - 6.0 - Mostly clear 10 - - - -
23/06:00am 10.0 SSW 7 9 1021.3 F 6.0 Fine Mostly clear 30 - - - -
23/05:30am 11.0 SSW 7 8 1021.0 - 6.0 - Mostly clear 10 - - - -
23/05:00am 10.3 SSW 7 9 1020.9 - 6.0 - - 10 - - - -
23/04:30am 9.2 SSW 7 8 1020.7 - 6.0 - - 10 - - - -
23/04:00am 10.6 SSW 6 8 1020.6 - 6.0 - - 10 - - - -
23/03:30am 10.4 SSW 7 8 1020.5 - 6.0 - - 10 - - - -
23/03:00am 10.3 SSW 8 10 1020.9 R 6.0 Fine Clear 30 - - - -
23/02:30am 9.4 SSW 7 9 1021.0 - 5.8 - - 10 - - - -
23/02:00am 9.8 SSW 6 7 1021.2 - 5.8 - - 10 - - - -
23/01:30am 10.2 SSW 5 7 1020.9 - 5.8 - - 10 - - - -
23/01:00am 10.1 SSW 8 8 1021.0 - 5.8 - - 10 - - - -
23/12:30am 11.7 SSW 7 8 1021.1 - 5.8 - - 10 - - - -
23/12:00am 11.7 SSW 5 6 1021.3 F 5.8 Fine Mostly clear 10 - - - -
 
Date/Time
EST
Temp

°C
Wind Pressure Rain
since 9am
mm
Weather Cloud Vis
km
Sea
Height
m
Swell
Dir
 
Speed
knots
Gust
knots
hPa Trend Height
m
Period
s
Dir
22/11:30pm 13.2 S 5 8 1021.3 - 5.8 - - 10 - - - -
22/11:00pm 12.6 S 5 6 1021.6 - 5.8 - Partly cloudy 10 - - - -
22/10:30pm 12.8 S 3 5 1021.7 - 5.8 - - 10 - - - -
22/10:00pm 13.4 SSW 5 7 1021.9 - 5.8 - Partly cloudy 10 - - - -
22/09:30pm 14.0 S 3 8 1021.9 - 5.8 - Mostly clear 10 - - - -
22/09:00pm 14.6 S 5 7 1021.8 R 5.8 Fine Mostly cloudy 30 - - - -
22/08:30pm 14.1 S 4 6 1021.7 - 5.8 - Cloudy 10 - - - -
22/08:00pm 14.4 S 3 5 1021.6 - 5.8 - Partly cloudy 10 - - - -
22/07:30pm 14.1 S 4 6 1021.2 - 5.8 - Mostly clear 10 - - - -
22/07:00pm 14.0 SSE 4 5 1021.0 - 5.8 - Mostly clear 10 - - - -
22/06:30pm 14.0 ESE 5 6 1020.5 - 5.8 - Mostly clear 10 - - - -
22/06:00pm 14.1 ESE 4 5 1020.5 R 5.8 Recent th'storm Mostly clear 25 - - - -
22/05:30pm 14.7 E 4 10 1020.4 - 5.6 Showers Mostly clear 10 - - - -
22/05:25pm 15.4 WSW 3 6 1020.3 - 5.4 Showers Partly cloudy 10 - - - -
22/05:00pm 15.8 NW 3 5 1020.3 - 5.0 Thunderstorm Partly cloudy 10 - - - -
22/04:51pm 15.9 NNW 2 7 1020.2 - 5.0 Thunder Partly cloudy 10 - - - -
22/04:30pm 15.4 N 5 7 1019.9 - 5.0 Thunderstorm Mostly clear 10 - - - -
22/04:16pm 15.3 ESE 9 16 1019.3 - 4.2 Thunderstorm Partly cloudy 10 - - - -
22/04:00pm 15.8 E 10 17 1019.0 - 0.0 Showers Mostly clear 10 - - - -
22/03:30pm 18.0 ENE 8 12 1018.8 - 0.0 - Partly cloudy 10 - - - -
22/03:00pm 19.5 NNE 9 11 1018.5 F 0.0 Distant precip. Partly cloudy 25 - - - -
22/02:30pm 20.2 NNE 9 10 1018.5 - 0.0 - Mostly clear 10 - - - -
22/02:00pm 20.7 NNE 8 10 1018.7 - 0.0 - Mostly clear 10 - - - -
22/01:30pm 20.4 NNE 8 10 1019.0 - 0.0 - Partly cloudy 10 - - - -
22/01:00pm 21.1 NNE 3 6 1019.4 - 0.0 - Mostly clear 10 - - - -
22/12:30pm 19.6 ESE 5 8 1019.7 - 0.0 - Mostly clear 10 - - - -
22/12:00pm 18.6 SW 12 15 1020.5 F 0.0 Showers Mostly cloudy 25 - - - -
22/11:30am 19.2 SSW 3 7 1021.0 - 0.0 - Mostly clear 10 - - - -
22/11:00am 19.1 S 5 9 1021.5 - 0.0 - Mostly clear 10 - - - -
22/10:30am 19.3 SSW 7 10 1022.1 - 0.0 - Mostly clear 10 - - - -
22/10:00am 18.5 SSW 7 9 1022.4 - 0.0 - Mostly clear 10 - - - -
22/09:30am 17.1 SSW 9 10 1022.5 - 0.0 - Mostly clear 10 - - - -
22/09:00am 16.0 SSW 9 11 1022.6 R 0.0 Fine Mostly clear 25 - - - -
22/08:30am 14.8 SSW 7 10 1022.4 - 0.0 - Mostly clear 10 - - - -
22/08:00am 13.7 SSW 7 11 1022.2 - 0.0 - Mostly clear 10 - - - -
22/07:30am 12.4 SSW 8 10 1022.1 - 0.0 - - 10 - - - -
22/07:00am 10.9 SSW 9 11 1021.7 - 0.0 - - 10 - - - -
22/06:30am 11.1 SSW 9 12 1021.4 - 0.0 - - 10 - - - -
22/06:00am 10.8 SSW 9 12 1021.2 F 0.0 Fine Mostly clear 20 - - - -
22/05:30am 11.2 SSW 7 8 1020.9 - 0.0 - - 10 - - - -
22/05:00am 11.8 SSW 8 10 1020.8 - 0.0 - - 10 - - - -
22/04:30am 11.8 SSW 7 9 1020.6 - 0.0 - - 10 - - - -
22/04:00am 11.3 SSW 8 10 1020.7 - 0.0 - - 10 - - - -
22/03:30am 11.5 SSW 8 9 1020.8 - 0.0 - - 10 - - - -
22/03:00am 10.6 SSW 6 7 1020.9 F 0.0 Fine Mostly clear 20 - - - -
22/02:30am 11.8 SSW 7 9 1020.9 - 0.0 - - 10 - - - -
22/02:00am 11.4 SSW 6 8 1021.0 - 0.0 - - 10 - - - -
22/01:30am 12.6 S 6 7 1021.3 - 0.0 - - 10 - - - -
22/01:00am 12.9 S 5 7 1021.5 - 0.0 - - 10 - - - -
22/12:30am 13.7 S 6 8 1021.6 - 0.0 - - 10 - - - -
22/12:00am 12.6 SSW 5 6 1021.8 F 0.0 Fine Mostly clear 20 - - - -
 
Date/Time
EST
Temp

°C
Wind Pressure Rain
since 9am
mm
Weather Cloud Vis
km
Sea
Height
m
Swell
Dir
 
Speed
knots
Gust
knots
hPa Trend Height
m
Period
s
Dir
21/11:30pm 13.2 S 6 8 1021.9 - 0.0 - - 10 - - - -
21/11:00pm 14.5 S 6 9 1022.1 - 0.0 - - 10 - - - -
21/10:30pm 14.4 S 6 8 1022.2 - 0.0 - Partly cloudy 10 - - - -
21/10:00pm 13.6 S 5 6 1022.4 - 0.0 - - 10 - - - -
21/09:30pm 14.6 S 4 5 1022.2 - 0.0 - - 10 - - - -
21/09:00pm 15.2 SE 4 5 1022.0 F 0.0 Fine Mostly clear 30 - - - -
21/08:30pm 15.7 SE 5 8 1022.0 - 0.0 - - 10 - - - -
21/08:00pm 16.8 SE 4 5 1022.1 - 0.0 - Partly cloudy 10 - - - -
21/07:30pm 16.7 SE 4 5 1022.0 - 0.0 - - 10 - - - -
21/07:00pm 16.8 SE 4 5 1022.0 - 0.0 - Partly cloudy 10 - - - -
21/06:30pm 17.1 SE 4 6 1021.7 - 0.0 - Mostly clear 10 - - - -
21/06:00pm 17.4 ESE 5 7 1021.4 R 0.0 Distant precip. Partly cloudy 30 - - - -
21/05:30pm 17.6 SE 6 8 1021.3 - 0.0 - Mostly clear 10 - - - -
21/05:00pm 17.6 ESE 8 11 1021.0 - 0.0 - Mostly clear 10 - - - -
21/04:30pm 18.1 ESE 8 11 1020.7 - 0.0 - Mostly clear 10 - - - -
21/04:00pm 18.9 ESE 7 12 1020.5 - 0.0 - Mostly clear 10 - - - -
21/03:30pm 19.5 ESE 8 14 1020.3 - 0.0 - Mostly clear 10 - - - -
21/03:00pm 19.4 ESE 9 14 1020.3 R 0.0 Distant precip. Mostly cloudy 30 - - - -
21/02:30pm 19.5 ESE 8 14 1020.2 - 0.0 - Mostly clear 10 - - - -
21/02:00pm 19.3 E 10 15 1020.0 - 0.0 - Mostly clear 10 - - - -
21/01:30pm 20.1 ESE 9 16 1020.1 - 0.0 - Partly cloudy 10 - - - -
21/01:00pm 20.0 E 9 15 1020.4 - 0.0 - Partly cloudy 10 - - - -
21/12:30pm 20.2 E 9 14 1020.8 - 0.0 - Partly cloudy 10 - - - -
21/12:00pm 20.1 ESE 8 13 1021.3 F 0.0 Distant precip. Mostly cloudy 30 - - - -
21/11:30am 20.2 ESE 8 11 1021.9 - 0.0 - Partly cloudy 10 - - - -
21/11:00am 19.0 ESE 7 11 1022.5 - 0.0 - Mostly clear 10 - - - -
21/10:30am 19.2 S 7 12 1022.7 - 0.0 - Mostly clear 10 - - - -
21/10:00am 17.9 S 9 15 1023.0 - 0.0 - Mostly clear 10 - - - -
21/09:30am 17.3 SSW 10 14 1023.2 - 0.0 - Mostly clear 10 - - - -
21/09:00am 16.1 SSW 12 15 1023.3 R 0.0 Distant precip. Partly cloudy 30 - - - -
21/08:30am 14.5 SSW 10 13 1023.3 - 0.0 - Mostly clear 10 - - - -
21/08:00am 12.8 SSW 9 10 1023.1 - 0.0 - Mostly clear 10 - - - -
21/07:30am 11.4 SSW 9 11 1022.8 - 0.0 - Mostly clear 10 - - - -
21/07:00am 10.4 SSW 9 10 1022.3 - 0.0 - Mostly clear 10 - - - -
21/06:30am 11.4 SSW 9 11 1022.1 - 0.0 - - 10 - - - -
21/06:00am 11.2 SSW 8 10 1021.8 S 0.0 Fine Mostly clear 30 - - - -
21/05:30am 10.1 SSW 8 9 1021.3 - 0.0 - - 10 - - - -
21/05:00am 9.9 SSW 8 10 1021.1 - 0.0 - - 10 - - - -
21/04:30am 10.8 SSW 9 10 1020.8 - 0.0 - - 10 - - - -
21/04:00am 10.1 SSW 8 9 1021.1 - 0.0 - - 10 - - - -
21/03:30am 10.8 SSW 7 9 1021.1 - 0.0 - Partly cloudy 10 - - - -
21/03:00am 12.8 SSW 7 8 1021.1 R 0.0 Fine Partly cloudy 30 - - - -
21/02:30am 13.1 SSW 8 10 1020.9 - 0.0 - - 10 - - - -
21/02:00am 13.5 SSW 9 11 1021.0 - 0.0 - Partly cloudy 10 - - - -
21/01:30am 13.4 SSW 8 10 1021.4 - 0.0 - Partly cloudy 10 - - - -
21/01:00am 11.1 SW 7 8 1021.6 - 0.0 - Partly cloudy 10 - - - -
21/12:30am 13.0 SSW 7 8 1021.6 - 0.0 - Partly cloudy 10 - - - -
21/12:00am 13.1 SSW 5 7 1021.5 F 0.0 Fine Mostly cloudy 30 - - - -
 
Date/Time
EST
Temp

°C
Wind Pressure Rain
since 9am
mm
Weather Cloud Vis
km
Sea
Height
m
Swell
Dir
 
Speed
knots
Gust
knots
hPa Trend Height
m
Period
s
Dir
20/11:30pm 13.6 SSW 5 6 1021.6 - 0.0 - Partly cloudy 10 - - - -
20/11:00pm 13.8 SSW 5 6 1021.8 - 0.0 - Partly cloudy 10 - - - -
20/10:30pm 13.5 S 5 5 1021.9 - 0.0 - Mostly clear 10 - - - -
20/10:00pm 13.2 S 4 4 1022.0 - 0.0 - Partly cloudy 10 - - - -
20/09:30pm 12.7 CALM 0 0 1021.7 - 0.0 - Partly cloudy 10 - - - -
20/09:00pm 12.2 SW 4 4 1021.7 R 0.0 Fine Partly cloudy 30 - - - -
20/08:30pm 15.5 S 4 5 1021.4 - 0.0 - - 10 - - - -

Other Formats:

Comma delimited format used in spreadsheet applications
http://www.bom.gov.au/fwo/IDQ60701/IDQ60701.94578.axf

JavaScript Object Notation format (JSON) in row-major order
http://www.bom.gov.au/fwo/IDQ60701/IDQ60701.94578.json